createdAt,value
2022-12-22T00:00:55.336Z,-9.05
2022-12-22T00:06:16.556Z,-9.11
2022-12-22T00:11:38.299Z,-9.17
2022-12-22T00:16:59.586Z,-9.24
2022-12-22T00:22:26.248Z,-9.41
2022-12-22T00:27:49.147Z,-9.37
2022-12-22T00:33:10.186Z,-9.51
2022-12-22T00:38:36.534Z,-9.42
2022-12-22T00:43:57.765Z,-9.41
2022-12-22T00:49:19.343Z,-9.44
2022-12-22T00:54:41.860Z,-9.49
2022-12-22T01:00:02.965Z,-9.49
2022-12-22T01:05:25.375Z,-9.58
2022-12-22T01:10:46.536Z,-9.60
2022-12-22T01:16:08.023Z,-9.61
2022-12-22T01:21:29.627Z,-9.67
2022-12-22T01:26:50.953Z,-9.68
2022-12-22T01:32:11.849Z,-9.69
2022-12-22T01:37:32.942Z,-9.93
2022-12-22T01:42:54.110Z,-9.84
2022-12-22T01:48:15.407Z,-9.85
2022-12-22T01:53:44.825Z,-9.82
2022-12-22T01:59:10.900Z,-9.95
2022-12-22T02:04:32.036Z,-9.98
2022-12-22T02:10:23.923Z,-10.04
2022-12-22T02:15:52.226Z,-10.15
2022-12-22T02:21:17.180Z,-10.25
2022-12-22T02:26:51.437Z,-10.30
2022-12-22T02:32:12.404Z,-10.27
2022-12-22T02:38:03.232Z,-10.43
2022-12-22T02:43:52.710Z,-10.41
2022-12-22T02:49:18.185Z,-10.65
2022-12-22T02:54:40.653Z,-11.02
2022-12-22T03:00:01.624Z,-10.83
2022-12-22T03:05:24.448Z,-10.88
2022-12-22T03:10:45.763Z,-10.89
2022-12-22T03:16:07.128Z,-10.99
2022-12-22T03:21:28.226Z,-10.97
2022-12-22T03:26:31.121Z,-11.23
2022-12-22T03:31:33.947Z,-11.33
2022-12-22T03:36:36.681Z,-11.62
2022-12-22T03:41:57.829Z,-11.63
2022-12-22T03:47:00.621Z,-11.64
2022-12-22T03:52:03.457Z,-11.61
2022-12-22T03:57:07.585Z,-11.68
2022-12-22T04:02:10.319Z,-11.69
2022-12-22T04:07:13.095Z,-11.76
2022-12-22T04:12:34.082Z,-11.85
2022-12-22T04:17:36.810Z,-12.05
2022-12-22T04:22:39.471Z,-12.14
2022-12-22T04:27:42.164Z,-12.26
2022-12-22T04:32:44.982Z,-12.23
2022-12-22T04:37:47.680Z,-12.26
2022-12-22T04:42:50.418Z,-12.24
2022-12-22T04:47:53.081Z,-12.18
2022-12-22T04:52:55.736Z,-12.29
2022-12-22T04:57:58.408Z,-12.34
2022-12-22T05:03:01.495Z,-12.40
2022-12-22T05:08:04.984Z,-12.36
2022-12-22T05:13:07.828Z,-12.42
2022-12-22T05:18:10.563Z,-12.38
2022-12-22T05:23:13.343Z,-12.59
2022-12-22T05:28:16.108Z,-12.30
2022-12-22T05:33:18.958Z,-12.24
2022-12-22T05:38:21.583Z,-12.14
2022-12-22T05:43:24.278Z,-11.96
2022-12-22T05:48:32.151Z,-11.83
2022-12-22T05:53:37.610Z,-12.05
2022-12-22T05:58:40.357Z,-12.44
2022-12-22T06:03:43.195Z,-12.72
2022-12-22T06:08:46.103Z,-13.00
2022-12-22T06:13:51.309Z,-13.10
2022-12-22T06:18:53.963Z,-13.21
2022-12-22T06:23:56.703Z,-13.18
2022-12-22T06:28:59.348Z,-13.23
2022-12-22T06:34:02.038Z,-13.16
2022-12-22T06:39:05.511Z,-13.13
2022-12-22T06:44:08.262Z,-13.08
2022-12-22T06:49:10.970Z,-13.30
2022-12-22T06:54:13.947Z,-13.74
2022-12-22T06:59:16.796Z,-13.68
2022-12-22T07:04:20.985Z,-13.69
2022-12-22T07:09:23.736Z,-13.62
2022-12-22T07:14:26.397Z,-13.59
2022-12-22T07:19:29.189Z,-13.56
2022-12-22T07:24:31.924Z,-13.58
2022-12-22T07:29:36.551Z,-13.87
2022-12-22T07:34:39.231Z,-13.93
2022-12-22T07:39:41.901Z,-14.01
2022-12-22T07:44:44.541Z,-14.02
2022-12-22T07:50:05.659Z,-14.19
2022-12-22T07:55:09.255Z,-14.21
2022-12-22T08:00:12.488Z,-14.04
2022-12-22T08:05:15.076Z,-14.01
2022-12-22T08:10:19.196Z,-13.99
2022-12-22T08:15:21.881Z,-14.02
2022-12-22T08:20:24.579Z,-13.91
2022-12-22T08:25:27.248Z,-13.88
2022-12-22T08:30:30.229Z,-13.85
2022-12-22T08:35:33.316Z,-13.89
2022-12-22T08:40:36.164Z,-13.93
2022-12-22T08:45:38.950Z,-13.84
2022-12-22T08:50:41.672Z,-13.99
2022-12-22T08:55:54.874Z,-13.72
2022-12-22T09:00:58.230Z,-13.69
2022-12-22T09:06:04.261Z,-13.84
2022-12-22T09:11:06.958Z,-13.71
2022-12-22T09:16:10.671Z,-13.72
2022-12-22T09:21:13.285Z,-13.69
2022-12-22T09:26:18.905Z,-13.60
2022-12-22T09:31:23.316Z,-13.59
2022-12-22T09:36:29.264Z,-13.52
2022-12-22T09:41:56.536Z,-13.52
2022-12-22T09:47:02.462Z,-13.55
2022-12-22T09:52:05.704Z,-13.59
2022-12-22T09:57:13.015Z,-13.56
2022-12-22T10:02:46.099Z,-13.55
2022-12-22T10:07:48.907Z,-13.53
2022-12-22T10:12:52.889Z,-13.51
2022-12-22T10:18:12.467Z,-13.47
2022-12-22T10:23:19.427Z,-13.42
2022-12-22T10:28:33.423Z,-13.31
2022-12-22T10:33:41.241Z,-13.33
2022-12-22T10:39:13.474Z,-13.37
2022-12-22T10:44:16.091Z,-13.37
2022-12-22T10:54:36.856Z,-13.39
2022-12-22T10:59:55.984Z,-13.42
2022-12-22T11:05:12.215Z,-13.45
2022-12-22T11:10:14.955Z,-13.42
2022-12-22T11:15:29.249Z,-13.52
2022-12-22T11:20:50.458Z,-13.55
2022-12-22T11:26:50.385Z,-13.71
2022-12-22T11:32:07.990Z,-13.69
2022-12-22T11:37:10.628Z,-13.70
2022-12-22T11:42:33.209Z,-13.69
2022-12-22T11:47:50.995Z,-13.60
2022-12-22T11:53:06.930Z,-13.62
2022-12-22T11:58:24.221Z,-13.60
2022-12-22T12:03:50.912Z,-13.51
2022-12-22T12:09:19.929Z,-13.52
2022-12-22T12:15:00.954Z,-13.51
2022-12-22T12:20:33.267Z,-13.45
2022-12-22T12:25:57.832Z,-13.46
2022-12-22T12:31:01.482Z,-13.37
2022-12-22T12:36:24.925Z,-13.37
2022-12-22T12:41:29.513Z,-13.34
2022-12-22T12:46:44.114Z,-13.36
2022-12-22T12:51:50.352Z,-13.44
2022-12-22T12:56:59.262Z,-13.45
2022-12-22T13:02:02.204Z,-13.43
2022-12-22T13:07:05.543Z,-13.45
2022-12-22T13:12:41.259Z,-13.48
2022-12-22T13:17:50.592Z,-13.56
2022-12-22T13:22:57.882Z,-13.55
2022-12-22T13:28:00.697Z,-13.57
2022-12-22T13:33:03.509Z,-13.74
2022-12-22T13:38:06.211Z,-13.73
2022-12-22T13:43:16.383Z,-13.92
2022-12-22T13:48:29.425Z,-13.95
2022-12-22T13:59:32.580Z,-14.16
2022-12-22T14:04:36.840Z,-14.22
2022-12-22T14:09:47.339Z,-14.27
2022-12-22T14:14:51.793Z,-14.39
2022-12-22T14:19:56.805Z,-14.45
2022-12-22T14:25:02.305Z,-14.47
2022-12-22T14:30:16.092Z,-14.62
2022-12-22T14:35:21.598Z,-14.73
2022-12-22T14:40:34.700Z,-14.87
2022-12-22T14:45:37.433Z,-15.00
2022-12-22T14:50:49.173Z,-15.17
2022-12-22T14:55:52.309Z,-15.20
2022-12-22T15:01:27.030Z,-15.31
2022-12-22T15:06:29.838Z,-15.33
2022-12-22T15:11:33.457Z,-15.41
2022-12-22T15:16:36.042Z,-15.33
2022-12-22T15:21:38.878Z,-15.42
2022-12-22T15:26:42.333Z,-15.44
2022-12-22T15:31:44.779Z,-15.45
2022-12-22T15:36:48.024Z,-15.44
2022-12-22T15:41:50.759Z,-15.46
2022-12-22T15:46:57.746Z,-15.52
2022-12-22T15:52:02.562Z,-15.52
2022-12-22T15:57:05.296Z,-15.61
2022-12-22T16:02:13.034Z,-15.50
2022-12-22T16:07:16.050Z,-15.51
2022-12-22T16:12:19.899Z,-15.56
2022-12-22T16:17:24.910Z,-15.68
2022-12-22T16:22:34.044Z,-15.71
2022-12-22T16:27:36.837Z,-15.78
2022-12-22T16:32:40.427Z,-15.78
2022-12-22T16:37:43.442Z,-15.75
2022-12-22T16:48:19.831Z,-15.64
2022-12-22T16:53:22.696Z,-15.64
2022-12-22T16:58:25.485Z,-15.77
2022-12-22T17:03:29.269Z,-15.96
2022-12-22T17:08:37.306Z,-16.03
2022-12-22T17:13:40.211Z,-16.26
2022-12-22T17:18:42.883Z,-16.26
2022-12-22T17:23:49.009Z,-16.10
2022-12-22T17:28:51.714Z,-16.11
2022-12-22T17:33:54.420Z,-16.10
2022-12-22T17:38:57.095Z,-16.19
2022-12-22T17:43:59.878Z,-16.42
2022-12-22T17:49:02.615Z,-16.41
2022-12-22T17:54:05.555Z,-16.54
2022-12-22T17:59:12.401Z,-16.58
2022-12-22T18:04:15.701Z,-16.67
2022-12-22T18:09:22.301Z,-16.73
2022-12-22T18:14:25.095Z,-16.81
2022-12-22T18:19:27.843Z,-16.95
2022-12-22T18:24:30.633Z,-16.90
2022-12-22T18:29:33.316Z,-16.95
2022-12-22T18:34:36.949Z,-16.99
2022-12-22T18:39:39.818Z,-17.05
2022-12-22T18:44:42.479Z,-17.16
2022-12-22T18:49:45.558Z,-17.31
2022-12-22T18:54:48.283Z,-17.40
2022-12-22T18:59:51.163Z,-17.47
2022-12-22T19:04:54.685Z,-17.47
2022-12-22T19:09:57.401Z,-17.60
2022-12-22T19:15:04.147Z,-17.67
2022-12-22T19:20:10.606Z,-17.66
2022-12-22T19:25:18.280Z,-17.58
2022-12-22T19:30:23.595Z,-17.48
2022-12-22T19:35:26.401Z,-17.42
2022-12-22T19:40:31.929Z,-17.40
2022-12-22T19:45:35.934Z,-17.39
2022-12-22T19:50:38.657Z,-17.42
2022-12-22T19:55:44.739Z,-17.53
2022-12-22T20:00:47.953Z,-17.67
2022-12-22T20:05:50.908Z,-17.61
2022-12-22T20:10:58.359Z,-17.74
2022-12-22T20:16:01.749Z,-17.83
2022-12-22T20:21:07.216Z,-17.81
2022-12-22T20:26:17.266Z,-17.80
2022-12-22T20:31:22.444Z,-17.81
2022-12-22T20:36:32.158Z,-17.86
2022-12-22T20:41:34.874Z,-17.90
2022-12-22T20:46:37.693Z,-17.97
2022-12-22T20:51:40.425Z,-18.09
2022-12-22T20:56:45.434Z,-18.12
2022-12-22T21:01:49.884Z,-18.14
2022-12-22T21:06:54.798Z,-18.31
2022-12-22T21:11:57.480Z,-18.32
2022-12-22T21:17:00.384Z,-18.58
2022-12-22T21:22:03.163Z,-18.44
2022-12-22T21:27:06.032Z,-18.43
2022-12-22T21:32:09.963Z,-18.49
2022-12-22T21:37:18.926Z,-18.51
2022-12-22T21:42:21.544Z,-18.51
2022-12-22T21:47:24.349Z,-18.58
2022-12-22T21:52:27.422Z,-18.54
2022-12-22T21:57:30.012Z,-18.71
2022-12-22T22:02:32.791Z,-18.89
2022-12-22T22:07:35.379Z,-18.70
2022-12-22T22:12:38.386Z,-18.75
2022-12-22T22:17:41.921Z,-18.95
2022-12-22T22:22:45.715Z,-19.05
2022-12-22T22:27:49.231Z,-19.16
2022-12-22T22:32:52.684Z,-19.15
2022-12-22T22:37:56.254Z,-19.26
2022-12-22T22:42:58.894Z,-19.36
2022-12-22T22:48:06.289Z,-19.40
2022-12-22T22:53:12.422Z,-19.60
2022-12-22T22:58:15.040Z,-19.34
2022-12-22T23:03:17.904Z,-19.43
2022-12-22T23:08:20.732Z,-19.37
2022-12-22T23:13:23.733Z,-19.36
2022-12-22T23:18:26.589Z,-19.54
2022-12-22T23:23:30.463Z,-19.52
2022-12-22T23:28:34.353Z,-19.51
2022-12-22T23:33:37.013Z,-19.56
2022-12-22T23:38:39.518Z,-19.60
2022-12-22T23:43:41.927Z,-19.65
2022-12-22T23:48:44.890Z,-19.76
2022-12-22T23:53:47.714Z,-20.00
2022-12-22T23:58:54.481Z,-20.03
